createdAt,value
2019-01-22T00:00:02.695Z,1.73
2019-01-22T00:00:29.076Z,1.71
2019-01-22T00:00:55.172Z,1.74
2019-01-22T00:01:21.276Z,1.67
2019-01-22T00:01:47.546Z,1.67
2019-01-22T00:02:13.675Z,1.68
2019-01-22T00:02:39.778Z,1.58
2019-01-22T00:03:06.222Z,1.55
2019-01-22T00:03:32.328Z,1.62
2019-01-22T00:03:58.759Z,1.6
2019-01-22T00:04:24.887Z,1.7
2019-01-22T00:04:50.993Z,1.66
2019-01-22T00:05:17.428Z,1.67
2019-01-22T00:05:43.537Z,1.59
2019-01-22T00:06:09.896Z,1.58
2019-01-22T00:06:36.003Z,1.56
2019-01-22T00:07:02.102Z,1.67
2019-01-22T00:07:28.576Z,1.6
2019-01-22T00:07:54.671Z,1.6
2019-01-22T00:08:20.778Z,1.63
2019-01-22T00:08:47.181Z,1.58
2019-01-22T00:09:13.286Z,1.59
2019-01-22T00:09:39.726Z,1.59
2019-01-22T00:10:05.830Z,1.59
2019-01-22T00:10:31.935Z,1.55
2019-01-22T00:10:58.399Z,1.55
2019-01-22T00:11:24.508Z,1.58
2019-01-22T00:11:50.932Z,1.58
2019-01-22T00:12:17.196Z,1.63
2019-01-22T00:12:43.326Z,1.58
2019-01-22T00:13:09.767Z,1.58
2019-01-22T00:13:35.870Z,1.59
2019-01-22T00:14:01.975Z,1.53
2019-01-22T00:14:28.422Z,1.56
2019-01-22T00:14:54.523Z,1.52
2019-01-22T00:15:21.043Z,1.56
2019-01-22T00:15:47.142Z,1.49
2019-01-22T00:16:13.261Z,1.53
2019-01-22T00:16:39.665Z,1.44
2019-01-22T00:17:06.642Z,1.6
2019-01-22T00:17:32.945Z,1.52
2019-01-22T00:17:59.082Z,1.58
2019-01-22T00:18:25.179Z,1.48
2019-01-22T00:18:51.529Z,1.5
2019-01-22T00:19:17.625Z,1.5
2019-01-22T00:19:43.734Z,1.52
2019-01-22T00:20:10.116Z,1.55
2019-01-22T00:20:36.219Z,1.45
2019-01-22T00:21:02.694Z,1.5
2019-01-22T00:21:28.800Z,1.55
2019-01-22T00:21:54.907Z,1.5
2019-01-22T00:22:21.361Z,1.52
2019-01-22T00:22:47.496Z,1.49
2019-01-22T00:23:14.877Z,1.49
2019-01-22T00:23:40.979Z,1.52
2019-01-22T00:24:07.081Z,1.49
2019-01-22T00:24:33.487Z,1.52
2019-01-22T00:24:59.586Z,1.45
2019-01-22T00:25:25.694Z,1.53
2019-01-22T00:25:51.954Z,1.53
2019-01-22T00:26:18.056Z,1.5
2019-01-22T00:26:44.490Z,1.53
2019-01-22T00:27:10.586Z,1.41
2019-01-22T00:27:36.696Z,1.42
2019-01-22T00:28:03.099Z,1.44
2019-01-22T00:28:30.195Z,1.52
2019-01-22T00:28:56.320Z,1.48
2019-01-22T00:29:22.421Z,1.45
2019-01-22T00:29:48.522Z,1.52
2019-01-22T00:30:14.909Z,1.5
2019-01-22T00:30:41.073Z,1.42
2019-01-22T00:31:07.175Z,1.49
2019-01-22T00:31:33.585Z,1.52
2019-01-22T00:31:59.716Z,1.48
2019-01-22T00:32:26.111Z,1.52
2019-01-22T00:32:52.241Z,1.41
2019-01-22T00:33:18.343Z,1.52
2019-01-22T00:33:44.698Z,1.42
2019-01-22T00:34:10.805Z,1.44
2019-01-22T00:34:37.208Z,1.42
2019-01-22T00:35:03.332Z,1.42
2019-01-22T00:35:29.444Z,1.44
2019-01-22T00:35:55.770Z,1.45
2019-01-22T00:36:21.873Z,1.52
2019-01-22T00:36:47.978Z,1.49
2019-01-22T00:37:14.367Z,1.45
2019-01-22T00:37:40.487Z,1.48
2019-01-22T00:38:06.914Z,1.49
2019-01-22T00:38:33.046Z,1.49
2019-01-22T00:38:59.158Z,1.48
2019-01-22T00:39:25.651Z,1.44
2019-01-22T00:39:51.783Z,1.45
2019-01-22T00:40:18.189Z,1.49
2019-01-22T00:40:44.423Z,1.45
2019-01-22T00:41:10.560Z,1.48
2019-01-22T00:41:37.066Z,1.49
2019-01-22T00:42:03.164Z,1.48
2019-01-22T00:42:29.274Z,1.52
2019-01-22T00:42:55.971Z,1.48
2019-01-22T00:43:22.074Z,1.53
2019-01-22T00:43:48.489Z,1.49
2019-01-22T00:44:14.599Z,1.44
2019-01-22T00:44:40.697Z,1.42
2019-01-22T00:45:07.173Z,1.41
2019-01-22T00:45:33.281Z,1.42
2019-01-22T00:45:59.734Z,1.42
2019-01-22T00:46:25.889Z,1.32
2019-01-22T00:46:51.991Z,1.34
2019-01-22T00:47:18.580Z,1.32
2019-01-22T00:47:44.686Z,1.37
2019-01-22T00:48:10.787Z,1.34
2019-01-22T00:48:37.239Z,1.34
2019-01-22T00:49:03.344Z,1.32
2019-01-22T00:49:29.804Z,1.26
2019-01-22T00:49:55.928Z,1.3
2019-01-22T00:50:22.034Z,1.31
2019-01-22T00:50:48.353Z,1.28
2019-01-22T00:51:14.459Z,1.37
2019-01-22T00:51:40.868Z,1.32
2019-01-22T00:52:07.021Z,1.26
2019-01-22T00:52:33.130Z,1.32
2019-01-22T00:52:59.631Z,1.28
2019-01-22T00:53:26.724Z,1.31
2019-01-22T00:53:52.824Z,1.28
2019-01-22T00:54:19.216Z,1.28
2019-01-22T00:54:45.320Z,1.28
2019-01-22T00:55:11.701Z,1.24
2019-01-22T00:55:37.832Z,1.28
2019-01-22T00:56:03.931Z,1.22
2019-01-22T00:56:30.325Z,1.14
2019-01-22T00:56:56.430Z,1.2
2019-01-22T00:57:22.723Z,1.31
2019-01-22T00:57:48.829Z,1.2
2019-01-22T00:58:14.931Z,1.22
2019-01-22T00:58:41.305Z,1.3
2019-01-22T00:59:07.406Z,1.26
2019-01-22T00:59:33.519Z,1.23
2019-01-22T00:59:59.897Z,1.2
2019-01-22T01:00:26.039Z,1.14
2019-01-22T01:00:52.404Z,1.13
2019-01-22T01:01:18.509Z,1.13
2019-01-22T01:01:44.649Z,1.2
2019-01-22T01:02:10.993Z,1.2
2019-01-22T01:02:37.096Z,1.2
2019-01-22T01:03:03.552Z,1.24
2019-01-22T01:03:29.809Z,1.14
2019-01-22T01:03:55.915Z,1.13
2019-01-22T01:04:22.505Z,1.14
2019-01-22T01:04:48.607Z,1.13
2019-01-22T01:05:14.710Z,1.13
2019-01-22T01:05:41.287Z,1.06
2019-01-22T01:06:07.382Z,1.1
2019-01-22T01:06:33.860Z,1.14
2019-01-22T01:06:59.970Z,1.12
2019-01-22T01:07:26.070Z,1.12
2019-01-22T01:07:52.786Z,1.16
2019-01-22T01:08:19.842Z,1.1
2019-01-22T01:08:46.203Z,1.14
2019-01-22T01:09:12.338Z,1.08
2019-01-22T01:09:38.445Z,1.08
2019-01-22T01:10:04.831Z,1.16
2019-01-22T01:10:30.935Z,1.14
2019-01-22T01:10:57.067Z,1.13
2019-01-22T01:11:23.471Z,1.12
2019-01-22T01:11:49.579Z,1.13
2019-01-22T01:12:16.223Z,1.12
2019-01-22T01:12:42.322Z,1.14
2019-01-22T01:13:08.425Z,1.13
2019-01-22T01:13:35.119Z,1.12
2019-01-22T01:14:01.219Z,1.08
2019-01-22T01:14:27.523Z,1.16
2019-01-22T01:14:53.863Z,1.16
2019-01-22T01:15:19.965Z,1.12
2019-01-22T01:15:46.510Z,1.08
2019-01-22T01:16:12.621Z,1.06
2019-01-22T01:16:38.719Z,1.01
2019-01-22T01:17:05.301Z,1.04
2019-01-22T01:17:31.398Z,1.02
2019-01-22T01:17:57.943Z,0.98
2019-01-22T01:18:24.052Z,1.06
2019-01-22T01:18:50.153Z,1.01
2019-01-22T01:19:16.815Z,1.01
2019-01-22T01:19:42.933Z,1.04
2019-01-22T01:20:09.218Z,0.99
2019-01-22T01:20:35.544Z,0.99
2019-01-22T01:21:01.647Z,0.95
2019-01-22T01:21:27.882Z,0.99
2019-01-22T01:21:53.992Z,0.99
2019-01-22T01:22:20.100Z,1.05
2019-01-22T01:22:46.216Z,0.98
2019-01-22T01:23:16.723Z,0.95
2019-01-22T01:23:39.597Z,1.06
2019-01-22T01:24:05.700Z,0.95
2019-01-22T01:24:31.801Z,0.94
2019-01-22T01:24:57.935Z,0.96
2019-01-22T01:25:24.032Z,0.92
2019-01-22T01:25:50.138Z,0.88
2019-01-22T01:26:16.514Z,0.8
2019-01-22T01:26:42.621Z,0.77
2019-01-22T01:27:08.957Z,0.86
2019-01-22T01:27:35.060Z,0.78
2019-01-22T01:28:01.192Z,0.84
2019-01-22T01:28:27.502Z,0.81
2019-01-22T01:28:53.604Z,0.78
2019-01-22T01:29:19.960Z,0.83
2019-01-22T01:29:46.092Z,0.83
2019-01-22T01:30:12.193Z,0.87
2019-01-22T01:30:38.576Z,0.8
2019-01-22T01:31:04.692Z,0.81
2019-01-22T01:31:30.790Z,0.8
2019-01-22T01:31:57.260Z,0.77
2019-01-22T01:32:23.394Z,0.86
2019-01-22T01:32:49.782Z,0.8
2019-01-22T01:33:15.892Z,0.74
2019-01-22T01:33:41.994Z,0.77
2019-01-22T01:34:08.325Z,0.8
2019-01-22T01:34:34.424Z,0.86
2019-01-22T01:35:00.778Z,0.8
2019-01-22T01:35:26.877Z,0.81
2019-01-22T01:35:52.983Z,0.83
2019-01-22T01:36:19.357Z,0.81
2019-01-22T01:36:45.464Z,0.83
2019-01-22T01:37:11.628Z,0.77
2019-01-22T01:37:38.117Z,0.83
2019-01-22T01:38:04.244Z,0.73
2019-01-22T01:38:30.787Z,0.7
2019-01-22T01:38:56.886Z,0.7
2019-01-22T01:39:22.988Z,0.7
2019-01-22T01:39:49.597Z,0.78
2019-01-22T01:40:15.767Z,0.8
2019-01-22T01:40:41.948Z,0.8
2019-01-22T01:41:08.166Z,0.81
2019-01-22T01:41:34.269Z,0.73
2019-01-22T01:42:00.568Z,0.74
2019-01-22T01:42:26.663Z,0.76
2019-01-22T01:42:52.768Z,0.74
2019-01-22T01:43:18.899Z,0.73
2019-01-22T01:43:45.003Z,0.8
2019-01-22T01:44:11.445Z,0.7
2019-01-22T01:44:37.546Z,0.7
2019-01-22T01:45:03.647Z,0.73
2019-01-22T01:45:30.056Z,0.7
2019-01-22T01:45:58.137Z,0.8
2019-01-22T01:46:24.239Z,0.69
2019-01-22T01:46:50.516Z,0.81
2019-01-22T01:47:16.617Z,0.68
2019-01-22T01:47:42.950Z,0.7
2019-01-22T01:48:09.051Z,0.76
2019-01-22T01:48:35.157Z,0.7
2019-01-22T01:49:01.422Z,0.69
2019-01-22T01:49:27.532Z,0.7
2019-01-22T01:49:53.924Z,0.65
2019-01-22T01:50:20.032Z,0.69
2019-01-22T01:50:46.127Z,0.69
2019-01-22T01:51:12.425Z,0.74
2019-01-22T01:51:38.557Z,0.63
2019-01-22T01:52:04.663Z,0.69
2019-01-22T01:52:31.065Z,0.68
2019-01-22T01:52:57.168Z,0.74
2019-01-22T01:53:24.551Z,0.68
2019-01-22T01:53:50.677Z,0.65
2019-01-22T01:54:16.783Z,0.68
2019-01-22T01:54:43.164Z,0.77
2019-01-22T01:55:09.270Z,0.73
2019-01-22T01:55:35.471Z,0.58
2019-01-22T01:56:01.580Z,0.58
2019-01-22T01:56:27.683Z,0.73
2019-01-22T01:56:54.118Z,0.69
2019-01-22T01:57:20.253Z,0.59
2019-01-22T01:57:46.388Z,0.6
2019-01-22T01:58:12.836Z,0.66
2019-01-22T01:58:38.937Z,0.68
2019-01-22T01:59:05.344Z,0.68
2019-01-22T01:59:31.447Z,0.7
2019-01-22T01:59:57.557Z,0.56
2019-01-22T02:00:23.964Z,0.69
2019-01-22T02:00:50.101Z,0.59
2019-01-22T02:01:16.527Z,0.68
2019-01-22T02:01:42.629Z,0.63
2019-01-22T02:02:08.732Z,0.73
2019-01-22T02:02:35.365Z,0.68
2019-01-22T02:03:01.466Z,0.69
2019-01-22T02:03:27.568Z,0.74
2019-01-22T02:03:54.006Z,0.7
2019-01-22T02:04:20.115Z,0.7
2019-01-22T02:04:46.760Z,0.69
2019-01-22T02:05:12.859Z,0.66
2019-01-22T02:05:38.967Z,0.7
2019-01-22T02:06:05.391Z,0.69
2019-01-22T02:06:31.528Z,0.66
2019-01-22T02:06:57.939Z,0.68
2019-01-22T02:07:24.306Z,0.6
2019-01-22T02:07:50.407Z,0.69
2019-01-22T02:08:16.909Z,0.65
2019-01-22T02:08:43.014Z,0.65
2019-01-22T02:09:09.149Z,0.5
2019-01-22T02:09:35.641Z,0.56
2019-01-22T02:10:01.739Z,0.58
2019-01-22T02:10:28.315Z,0.5
2019-01-22T02:10:54.413Z,0.63
2019-01-22T02:11:20.548Z,0.47
2019-01-22T02:11:47.078Z,0.46
2019-01-22T02:12:13.203Z,0.52
2019-01-22T02:12:39.672Z,0.44
2019-01-22T02:13:05.971Z,0.4
2019-01-22T02:13:32.104Z,0.46
2019-01-22T02:13:58.505Z,0.47
2019-01-22T02:14:24.641Z,0.44
2019-01-22T02:14:50.735Z,0.5
2019-01-22T02:15:17.312Z,0.46
2019-01-22T02:15:43.417Z,0.37
2019-01-22T02:16:09.829Z,0.34
2019-01-22T02:16:35.960Z,0.34
2019-01-22T02:17:02.061Z,0.4
2019-01-22T02:17:28.350Z,0.4
2019-01-22T02:17:54.458Z,0.34
2019-01-22T02:18:20.823Z,0.34
2019-01-22T02:18:46.981Z,0.47
2019-01-22T02:19:13.086Z,0.39
2019-01-22T02:19:39.380Z,0.4
2019-01-22T02:20:05.480Z,0.46
2019-01-22T02:20:31.591Z,0.4
2019-01-22T02:20:57.879Z,0.36
2019-01-22T02:21:23.981Z,0.32
2019-01-22T02:21:50.299Z,0.36
2019-01-22T02:22:16.398Z,0.4
2019-01-22T02:22:42.498Z,0.39
2019-01-22T02:23:08.746Z,0.39
2019-01-22T02:23:35.871Z,0.37
2019-01-22T02:24:02.236Z,0.39
2019-01-22T02:24:28.343Z,0.32
2019-01-22T02:24:54.506Z,0.37
2019-01-22T02:25:20.862Z,0.37
2019-01-22T02:25:46.964Z,0.43
2019-01-22T02:26:13.063Z,0.32
2019-01-22T02:26:39.491Z,0.32
2019-01-22T02:27:05.595Z,0.32
2019-01-22T02:27:31.998Z,0.28
2019-01-22T02:27:58.097Z,0.32
2019-01-22T02:28:24.206Z,0.29
2019-01-22T02:28:50.454Z,0.29
2019-01-22T02:29:16.556Z,0.28
2019-01-22T02:29:42.886Z,0.34
2019-01-22T02:30:08.986Z,0.29
2019-01-22T02:30:35.082Z,0.29
2019-01-22T02:31:01.452Z,0.26
2019-01-22T02:31:27.560Z,0.31
2019-01-22T02:31:53.659Z,0.29
2019-01-22T02:32:20.101Z,0.22
2019-01-22T02:32:46.206Z,0.21
2019-01-22T02:33:12.342Z,0.29
2019-01-22T02:33:38.448Z,0.29
2019-01-22T02:34:04.581Z,0.29
2019-01-22T02:34:30.929Z,0.26
2019-01-22T02:34:57.029Z,0.28
2019-01-22T02:35:23.463Z,0.22
2019-01-22T02:35:49.569Z,0.26
2019-01-22T02:36:15.670Z,0.31
2019-01-22T02:36:42.012Z,0.26
2019-01-22T02:37:08.118Z,0.36
2019-01-22T02:37:34.239Z,0.37
2019-01-22T02:38:00.675Z,0.37
2019-01-22T02:38:26.773Z,0.32
2019-01-22T02:38:53.078Z,0.41
2019-01-22T02:39:19.180Z,0.41
2019-01-22T02:39:45.306Z,0.37
2019-01-22T02:40:11.733Z,0.39
2019-01-22T02:40:37.897Z,0.31
2019-01-22T02:41:04.253Z,0.37
2019-01-22T02:41:30.391Z,0.34
2019-01-22T02:41:56.490Z,0.39
2019-01-22T02:42:22.869Z,0.39
2019-01-22T02:42:48.982Z,0.36
2019-01-22T02:43:15.112Z,0.32
2019-01-22T02:43:41.214Z,0.43
2019-01-22T02:44:07.317Z,0.36
2019-01-22T02:44:33.831Z,0.32
2019-01-22T02:44:59.903Z,0.36
2019-01-22T02:45:26.002Z,0.34
2019-01-22T02:45:52.481Z,0.34
2019-01-22T02:46:18.615Z,0.34
2019-01-22T02:46:44.762Z,0.34
2019-01-22T02:47:10.980Z,0.39
2019-01-22T02:47:37.116Z,0.44
2019-01-22T02:48:03.499Z,0.4
2019-01-22T02:48:29.599Z,0.4
2019-01-22T02:48:55.706Z,0.37
2019-01-22T02:49:22.113Z,0.29
2019-01-22T02:49:48.241Z,0.37
2019-01-22T02:50:14.644Z,0.36
2019-01-22T02:50:40.750Z,0.4
2019-01-22T02:51:06.881Z,0.37
2019-01-22T02:51:33.185Z,0.43
2019-01-22T02:51:59.292Z,0.37
2019-01-22T02:52:25.643Z,0.29
2019-01-22T02:52:51.781Z,0.37
2019-01-22T02:53:17.914Z,0.32
2019-01-22T02:53:45.293Z,0.4
2019-01-22T02:54:11.398Z,0.39
2019-01-22T02:54:37.560Z,0.4
2019-01-22T02:55:03.888Z,0.4
2019-01-22T02:55:30.017Z,0.4
2019-01-22T02:55:56.404Z,0.39
2019-01-22T02:56:22.540Z,0.37
2019-01-22T02:56:48.663Z,0.37
2019-01-22T02:57:15.090Z,0.31
2019-01-22T02:57:41.211Z,0.29
2019-01-22T02:58:07.406Z,0.32
2019-01-22T02:58:33.509Z,0.29
2019-01-22T02:58:59.644Z,0.18
2019-01-22T02:59:26.091Z,0.15
2019-01-22T02:59:52.256Z,0.25
2019-01-22T03:00:18.357Z,0.26
2019-01-22T03:00:44.716Z,0.23
2019-01-22T03:01:10.819Z,0.21
2019-01-22T03:01:37.125Z,0.21
2019-01-22T03:02:03.256Z,0.21
2019-01-22T03:02:29.384Z,0.22
2019-01-22T03:02:55.726Z,0.16
2019-01-22T03:03:21.824Z,0.18
2019-01-22T03:03:48.285Z,0.21
2019-01-22T03:04:14.377Z,0.19
2019-01-22T03:04:40.507Z,0.16
2019-01-22T03:05:06.824Z,0.23
2019-01-22T03:05:32.922Z,0.22
2019-01-22T03:05:59.023Z,0.16
2019-01-22T03:06:25.310Z,0.21
2019-01-22T03:06:51.439Z,0.19
2019-01-22T03:07:17.562Z,0.15
2019-01-22T03:07:43.668Z,0.19
2019-01-22T03:08:09.775Z,0.16
2019-01-22T03:08:35.903Z,0.19
2019-01-22T03:09:02.998Z,0.21
2019-01-22T03:09:29.356Z,0.15
2019-01-22T03:09:55.461Z,0.18
2019-01-22T03:10:21.653Z,0.25
2019-01-22T03:10:48.083Z,0.18
2019-01-22T03:11:14.191Z,0.19
2019-01-22T03:11:40.305Z,0.21
2019-01-22T03:12:06.654Z,0.12
2019-01-22T03:12:32.778Z,0.16
2019-01-22T03:12:59.068Z,0.28
2019-01-22T03:13:25.179Z,0.25
2019-01-22T03:13:51.339Z,0.28
2019-01-22T03:14:17.687Z,0.25
2019-01-22T03:14:43.825Z,0.19
2019-01-22T03:15:10.154Z,0.19
2019-01-22T03:15:36.251Z,0.21
2019-01-22T03:16:02.388Z,0.21
2019-01-22T03:16:28.840Z,0.31
2019-01-22T03:16:54.942Z,0.34
2019-01-22T03:17:21.047Z,0.22
2019-01-22T03:17:47.348Z,0.21
2019-01-22T03:18:13.451Z,0.18
2019-01-22T03:18:39.757Z,0.26
2019-01-22T03:19:05.896Z,0.18
2019-01-22T03:19:32.024Z,0.23
2019-01-22T03:19:58.260Z,0.21
2019-01-22T03:20:24.387Z,0.18
2019-01-22T03:20:50.699Z,0.23
2019-01-22T03:21:16.808Z,0.29
2019-01-22T03:21:42.904Z,0.28
2019-01-22T03:22:09.309Z,0.21
2019-01-22T03:22:35.443Z,0.19
2019-01-22T03:23:01.547Z,0.16
2019-01-22T03:23:27.849Z,0.25
2019-01-22T03:23:54.940Z,0.18
2019-01-22T03:24:21.293Z,0.21
2019-01-22T03:24:47.384Z,0.21
2019-01-22T03:25:13.553Z,0.22
2019-01-22T03:25:39.967Z,0.21
2019-01-22T03:26:06.068Z,0.19
2019-01-22T03:26:32.451Z,0.22
2019-01-22T03:26:58.547Z,0.15
2019-01-22T03:27:24.673Z,0.18
2019-01-22T03:27:51.013Z,0.22
2019-01-22T03:28:17.116Z,0.19
2019-01-22T03:28:43.215Z,0.16
2019-01-22T03:29:09.653Z,0.15
2019-01-22T03:29:35.771Z,0.15
2019-01-22T03:30:02.108Z,0.19
2019-01-22T03:30:28.268Z,0.16
2019-01-22T03:30:54.430Z,0.11
2019-01-22T03:31:20.887Z,0.1
2019-01-22T03:31:47.074Z,0.1
2019-01-22T03:32:13.506Z,0.18
2019-01-22T03:32:39.641Z,0.11
2019-01-22T03:33:05.801Z,0.11
2019-01-22T03:33:31.953Z,0.21
2019-01-22T03:33:58.057Z,0.18
2019-01-22T03:34:24.156Z,0.22
2019-01-22T03:34:50.485Z,0.16
2019-01-22T03:35:16.587Z,0.21
2019-01-22T03:35:42.884Z,0.18
2019-01-22T03:36:09.045Z,0.16
2019-01-22T03:36:35.152Z,0.21
2019-01-22T03:37:01.301Z,0.1
2019-01-22T03:37:27.410Z,0.03
2019-01-22T03:37:53.759Z,0.04
2019-01-22T03:38:19.858Z,0.04
2019-01-22T03:38:45.966Z,0.1
2019-01-22T03:39:12.195Z,0.01
2019-01-22T03:39:38.302Z,0
2019-01-22T03:40:04.426Z,0.04
2019-01-22T03:40:30.734Z,0.04
2019-01-22T03:40:56.834Z,0.1
2019-01-22T03:41:23.160Z,0.05
2019-01-22T03:41:49.319Z,0.03
2019-01-22T03:42:15.432Z,0.03
2019-01-22T03:42:41.739Z,0.11
2019-01-22T03:43:07.840Z,0.11
2019-01-22T03:43:34.192Z,0.12
2019-01-22T03:44:00.346Z,0.11
2019-01-22T03:44:26.482Z,0.1
2019-01-22T03:44:52.842Z,0.15
2019-01-22T03:45:18.971Z,0.07
2019-01-22T03:45:45.095Z,0.05
2019-01-22T03:46:11.436Z,0.08
2019-01-22T03:46:37.542Z,0.15
2019-01-22T03:47:03.848Z,0.07
2019-01-22T03:47:29.948Z,0.07
2019-01-22T03:47:56.093Z,0.15
2019-01-22T03:48:22.310Z,0.08
2019-01-22T03:48:48.417Z,0.19
2019-01-22T03:49:14.655Z,0.12
2019-01-22T03:49:40.759Z,0.18
2019-01-22T03:50:06.872Z,0.19
2019-01-22T03:50:33.372Z,0.18
2019-01-22T03:50:59.482Z,0.18
2019-01-22T03:51:25.753Z,0.22
2019-01-22T03:51:52.000Z,0.28
2019-01-22T03:52:18.109Z,0.21
2019-01-22T03:52:44.542Z,0.18
2019-01-22T03:53:10.641Z,0.08
2019-01-22T03:53:36.743Z,0.15
2019-01-22T03:54:04.406Z,0.21
2019-01-22T03:54:30.543Z,0.05
2019-01-22T03:54:56.853Z,0.12
2019-01-22T03:55:22.975Z,0.15
2019-01-22T03:55:49.081Z,0.19
2019-01-22T03:56:15.389Z,0.16
2019-01-22T03:56:41.537Z,0.11
2019-01-22T03:57:07.974Z,0.11
2019-01-22T03:57:34.078Z,0.18
2019-01-22T03:58:00.204Z,0.22
2019-01-22T03:58:26.604Z,0.16
2019-01-22T03:58:52.715Z,0.21
2019-01-22T03:59:18.813Z,0.22
2019-01-22T03:59:45.133Z,0.21
2019-01-22T04:00:11.262Z,0.21
2019-01-22T04:00:37.574Z,0.26
2019-01-22T04:01:03.675Z,0.18
2019-01-22T04:01:29.785Z,0.19
2019-01-22T04:01:56.035Z,0.22
2019-01-22T04:02:22.168Z,0.29
2019-01-22T04:02:48.489Z,0.28
2019-01-22T04:03:14.592Z,0.31
2019-01-22T04:03:40.709Z,0.19
2019-01-22T04:04:07.102Z,0.23
2019-01-22T04:04:33.209Z,0.21
2019-01-22T04:04:59.343Z,0.31
2019-01-22T04:05:25.686Z,0.26
2019-01-22T04:05:51.794Z,0.23
2019-01-22T04:06:18.160Z,0.21
2019-01-22T04:06:44.269Z,0.21
2019-01-22T04:07:10.405Z,0.22
2019-01-22T04:07:36.747Z,0.29
2019-01-22T04:08:02.856Z,0.29
2019-01-22T04:08:29.131Z,0.29
2019-01-22T04:08:55.265Z,0.19
2019-01-22T04:09:21.400Z,0.23
2019-01-22T04:09:47.785Z,0.28
2019-01-22T04:10:13.879Z,0.19
2019-01-22T04:10:39.986Z,0.22
2019-01-22T04:11:06.281Z,0.22
2019-01-22T04:11:32.387Z,0.22
2019-01-22T04:11:58.620Z,0.21
2019-01-22T04:12:24.719Z,0.19
2019-01-22T04:12:50.824Z,0.22
2019-01-22T04:13:17.199Z,0.23
2019-01-22T04:13:43.306Z,0.25
2019-01-22T04:14:09.523Z,0.28
2019-01-22T04:14:35.655Z,0.25
2019-01-22T04:15:01.789Z,0.19
2019-01-22T04:15:28.177Z,0.23
2019-01-22T04:15:54.279Z,0.28
2019-01-22T04:16:20.382Z,0.21
2019-01-22T04:16:46.691Z,0.31
2019-01-22T04:17:12.828Z,0.29
2019-01-22T04:17:39.266Z,0.23
2019-01-22T04:18:05.396Z,0.28
2019-01-22T04:18:31.498Z,0.28
2019-01-22T04:18:57.745Z,0.23
2019-01-22T04:19:24.857Z,0.23
2019-01-22T04:19:51.199Z,0.23
2019-01-22T04:20:17.368Z,0.25
2019-01-22T04:20:43.480Z,0.21
2019-01-22T04:21:09.695Z,0.19
2019-01-22T04:21:35.796Z,0.18
2019-01-22T04:22:01.898Z,0.15
2019-01-22T04:22:28.165Z,0.08
2019-01-22T04:22:54.264Z,0.12
2019-01-22T04:23:20.606Z,0.16
2019-01-22T04:23:46.715Z,0.18
2019-01-22T04:24:13.833Z,0.19
2019-01-22T04:24:40.118Z,0.11
2019-01-22T04:25:06.247Z,0.11
2019-01-22T04:25:32.590Z,0.07
2019-01-22T04:25:58.756Z,0.07
2019-01-22T04:26:24.861Z,0.16
2019-01-22T04:26:51.459Z,0.12
2019-01-22T04:27:17.594Z,0.15
2019-01-22T04:27:44.039Z,0.03
2019-01-22T04:28:10.174Z,0.04
2019-01-22T04:28:36.272Z,0.15
2019-01-22T04:29:02.399Z,-0.07
2019-01-22T04:29:28.499Z,0.01
2019-01-22T04:29:54.634Z,0.01
2019-01-22T04:30:21.066Z,0
2019-01-22T04:30:47.203Z,-0.07
2019-01-22T04:31:13.669Z,-0.1
2019-01-22T04:31:39.829Z,-0.07
2019-01-22T04:32:05.938Z,-0.07
2019-01-22T04:32:32.283Z,-0.06
2019-01-22T04:32:58.386Z,-0.15
2019-01-22T04:33:24.664Z,-0.21
2019-01-22T04:33:50.766Z,-0.2
2019-01-22T04:34:16.894Z,-0.29
2019-01-22T04:34:43.310Z,-0.34
2019-01-22T04:35:09.410Z,-0.28
2019-01-22T04:35:35.516Z,-0.25
2019-01-22T04:36:01.851Z,-0.32
2019-01-22T04:36:27.952Z,-0.29
2019-01-22T04:36:54.307Z,-0.34
2019-01-22T04:37:20.414Z,-0.32
2019-01-22T04:37:46.543Z,-0.28
2019-01-22T04:38:12.687Z,-0.28
2019-01-22T04:38:38.791Z,-0.31
2019-01-22T04:39:05.143Z,-0.32
2019-01-22T04:39:31.275Z,-0.28
2019-01-22T04:39:57.377Z,-0.34
2019-01-22T04:40:23.624Z,-0.31
2019-01-22T04:40:49.722Z,-0.28
2019-01-22T04:41:15.825Z,-0.39
2019-01-22T04:41:42.143Z,-0.36
2019-01-22T04:42:08.246Z,-0.39
2019-01-22T04:42:34.629Z,-0.38
2019-01-22T04:43:00.734Z,-0.41
2019-01-22T04:43:26.840Z,-0.38
2019-01-22T04:43:53.195Z,-0.38
2019-01-22T04:44:19.333Z,-0.38
2019-01-22T04:44:45.613Z,-0.36
2019-01-22T04:45:13.325Z,-0.38
2019-01-22T04:45:38.832Z,-0.41
2019-01-22T04:46:05.350Z,-0.36
2019-01-22T04:46:31.484Z,-0.35
2019-01-22T04:46:57.946Z,-0.34
2019-01-22T04:47:24.177Z,-0.32
2019-01-22T04:47:50.278Z,-0.39
2019-01-22T04:48:16.551Z,-0.35
2019-01-22T04:48:42.651Z,-0.36
2019-01-22T04:49:08.758Z,-0.35
2019-01-22T04:49:35.063Z,-0.38
2019-01-22T04:50:01.171Z,-0.36
2019-01-22T04:50:27.317Z,-0.36
2019-01-22T04:50:53.416Z,-0.34
2019-01-22T04:51:19.574Z,-0.38
2019-01-22T04:51:45.754Z,-0.32
2019-01-22T04:52:11.857Z,-0.38
2019-01-22T04:52:38.181Z,-0.35
2019-01-22T04:53:04.308Z,-0.36
2019-01-22T04:53:30.409Z,-0.43
2019-01-22T04:53:56.803Z,-0.43
2019-01-22T04:54:24.898Z,-0.44
2019-01-22T04:54:50.997Z,-0.43
2019-01-22T04:55:17.239Z,-0.46
2019-01-22T04:55:43.339Z,-0.41
2019-01-22T04:56:09.688Z,-0.41
2019-01-22T04:56:35.788Z,-0.43
2019-01-22T04:57:01.893Z,-0.46
2019-01-22T04:57:28.279Z,-0.47
2019-01-22T04:57:54.378Z,-0.39
2019-01-22T04:58:20.740Z,-0.47
2019-01-22T04:58:46.836Z,-0.49
2019-01-22T04:59:12.941Z,-0.46
2019-01-22T04:59:39.236Z,-0.46
2019-01-22T05:00:05.420Z,-0.46
2019-01-22T05:00:31.525Z,-0.54
2019-01-22T05:00:57.761Z,-0.53
2019-01-22T05:01:23.862Z,-0.54
2019-01-22T05:01:50.021Z,-0.57
2019-01-22T05:02:16.122Z,-0.59
2019-01-22T05:02:42.255Z,-0.59
2019-01-22T05:03:08.506Z,-0.49
2019-01-22T05:03:34.636Z,-0.52
2019-01-22T05:04:00.868Z,-0.54
2019-01-22T05:04:26.973Z,-0.53
2019-01-22T05:04:53.134Z,-0.53
2019-01-22T05:05:19.459Z,-0.61
2019-01-22T05:05:45.553Z,-0.57
2019-01-22T05:06:11.883Z,-0.54
2019-01-22T05:06:38.171Z,-0.64
2019-01-22T05:07:04.267Z,-0.53
2019-01-22T05:07:30.767Z,-0.56
2019-01-22T05:07:56.866Z,-0.53
2019-01-22T05:08:23.011Z,-0.54
2019-01-22T05:08:49.369Z,-0.52
2019-01-22T05:09:15.524Z,-0.5
2019-01-22T05:09:41.934Z,-0.5
2019-01-22T05:10:08.420Z,-0.46
2019-01-22T05:10:34.528Z,-0.41
2019-01-22T05:11:00.833Z,-0.44
2019-01-22T05:11:26.929Z,-0.5
2019-01-22T05:11:53.273Z,-0.49
2019-01-22T05:12:19.371Z,-0.47
2019-01-22T05:12:45.476Z,-0.49
2019-01-22T05:13:11.860Z,-0.49
2019-01-22T05:13:37.964Z,-0.39
2019-01-22T05:14:04.070Z,-0.44
2019-01-22T05:14:30.482Z,-0.39
2019-01-22T05:14:56.618Z,-0.46
2019-01-22T05:15:22.958Z,-0.43
2019-01-22T05:15:49.063Z,-0.43
2019-01-22T05:16:15.187Z,-0.34
2019-01-22T05:16:41.621Z,-0.44
2019-01-22T05:17:07.711Z,-0.44
2019-01-22T05:17:34.039Z,-0.39
2019-01-22T05:18:00.140Z,-0.35
2019-01-22T05:18:26.235Z,-0.38
2019-01-22T05:18:52.651Z,-0.44
2019-01-22T05:19:18.749Z,-0.36
2019-01-22T05:19:44.855Z,-0.38
2019-01-22T05:20:11.149Z,-0.43
2019-01-22T05:20:37.250Z,-0.34
2019-01-22T05:21:03.618Z,-0.35
2019-01-22T05:21:29.723Z,-0.36
2019-01-22T05:21:55.851Z,-0.41
2019-01-22T05:22:22.107Z,-0.35
2019-01-22T05:22:48.211Z,-0.28
2019-01-22T05:23:14.587Z,-0.39
2019-01-22T05:23:40.720Z,-0.39
2019-01-22T05:24:06.821Z,-0.39
2019-01-22T05:24:34.562Z,-0.36
2019-01-22T05:25:00.664Z,-0.39
2019-01-22T05:25:27.132Z,-0.36
2019-01-22T05:25:53.259Z,-0.36
2019-01-22T05:26:19.364Z,-0.46
2019-01-22T05:26:45.885Z,-0.41
2019-01-22T05:27:11.989Z,-0.36
2019-01-22T05:27:38.091Z,-0.41
2019-01-22T05:28:04.423Z,-0.43
2019-01-22T05:28:31.570Z,-0.39
2019-01-22T05:28:57.815Z,-0.52
2019-01-22T05:29:23.976Z,-0.46
2019-01-22T05:29:50.085Z,-0.39
2019-01-22T05:30:16.384Z,-0.41
2019-01-22T05:30:42.526Z,-0.44
2019-01-22T05:31:08.663Z,-0.36
2019-01-22T05:31:34.759Z,-0.39
2019-01-22T05:32:00.925Z,-0.5
2019-01-22T05:32:27.220Z,-0.44
2019-01-22T05:32:53.324Z,-0.47
2019-01-22T05:33:19.489Z,-0.47
2019-01-22T05:33:45.771Z,-0.49
2019-01-22T05:34:11.872Z,-0.44
2019-01-22T05:34:38.267Z,-0.46
2019-01-22T05:35:04.401Z,-0.44
2019-01-22T05:35:30.504Z,-0.53
2019-01-22T05:35:56.933Z,-0.5
2019-01-22T05:36:23.070Z,-0.53
2019-01-22T05:36:49.318Z,-0.47
2019-01-22T05:37:15.429Z,-0.49
2019-01-22T05:37:41.587Z,-0.5
2019-01-22T05:38:07.977Z,-0.5
2019-01-22T05:38:34.114Z,-0.49
2019-01-22T05:39:00.214Z,-0.5
2019-01-22T05:39:26.517Z,-0.46
2019-01-22T05:39:52.641Z,-0.5
2019-01-22T05:40:19.015Z,-0.41
2019-01-22T05:40:45.116Z,-0.46
2019-01-22T05:41:11.247Z,-0.53
2019-01-22T05:41:37.393Z,-0.43
2019-01-22T05:42:03.524Z,-0.41
2019-01-22T05:42:29.898Z,-0.41
2019-01-22T05:42:56.001Z,-0.43
2019-01-22T05:43:22.138Z,-0.46
2019-01-22T05:43:48.474Z,-0.44
2019-01-22T05:44:14.579Z,-0.41
2019-01-22T05:44:40.673Z,-0.41
2019-01-22T05:45:07.147Z,-0.41
2019-01-22T05:45:33.275Z,-0.38
2019-01-22T05:45:59.615Z,-0.39
2019-01-22T05:46:25.718Z,-0.41
2019-01-22T05:46:51.848Z,-0.36
2019-01-22T05:47:18.434Z,-0.35
2019-01-22T05:47:44.538Z,-0.36